createdAt,value
2018-06-16T00:00:52.915Z,99.99
2018-06-16T00:01:52.849Z,99.99
2018-06-16T00:02:52.822Z,99.99
2018-06-16T00:03:52.800Z,99.99
2018-06-16T00:04:53.640Z,99.99
2018-06-16T00:05:52.808Z,99.99
2018-06-16T00:06:52.786Z,99.99
2018-06-16T00:07:52.768Z,99.99
2018-06-16T00:08:53.640Z,99.99
2018-06-16T00:09:52.668Z,99.99
2018-06-16T00:10:52.651Z,99.82
2018-06-16T00:11:52.611Z,99.99
2018-06-16T00:12:52.647Z,99.73
2018-06-16T00:13:52.562Z,99.68
2018-06-16T00:14:52.542Z,99.99
2018-06-16T00:15:53.147Z,99.99
2018-06-16T00:16:52.503Z,99.99
2018-06-16T00:17:52.516Z,99.99
2018-06-16T00:18:52.446Z,99.82
2018-06-16T00:19:53.137Z,99.82
2018-06-16T00:20:52.427Z,99.99
2018-06-16T00:21:52.377Z,99.99
2018-06-16T00:22:52.407Z,99.99
2018-06-16T00:23:53.157Z,99.99
2018-06-16T00:24:52.309Z,99.99
2018-06-16T00:25:52.280Z,99.99
2018-06-16T00:26:53.138Z,99.96
2018-06-16T00:27:52.282Z,99.99
2018-06-16T00:28:52.228Z,99.99
2018-06-16T00:29:52.185Z,99.99
2018-06-16T00:30:53.141Z,99.99
2018-06-16T00:31:52.141Z,99.99
2018-06-16T00:32:52.160Z,99.54
2018-06-16T00:33:52.105Z,99.15
2018-06-16T00:34:52.644Z,99.25
2018-06-16T00:35:52.055Z,99.25
2018-06-16T00:36:52.023Z,99.25
2018-06-16T00:37:52.040Z,98.86
2018-06-16T00:38:52.649Z,99.15
2018-06-16T00:39:52.007Z,99.15
2018-06-16T00:40:51.953Z,99.05
2018-06-16T00:41:51.905Z,98.67
2018-06-16T00:42:52.641Z,99.25
2018-06-16T00:43:51.860Z,99.15
2018-06-16T00:44:51.877Z,99.15
2018-06-16T00:45:52.644Z,99.05
2018-06-16T00:46:51.785Z,99.15
2018-06-16T00:47:51.818Z,99.25
2018-06-16T00:48:51.740Z,99.05
2018-06-16T00:49:51.711Z,98.29
2018-06-16T00:50:51.763Z,98.19
2018-06-16T00:51:51.666Z,98.19
2018-06-16T00:52:51.647Z,98.10
2018-06-16T00:53:51.624Z,98.00
2018-06-16T00:54:51.598Z,98.48
2018-06-16T00:55:54.051Z,98.19
2018-06-16T00:56:52.150Z,98.19
2018-06-16T00:57:51.559Z,98.38
2018-06-16T00:58:51.503Z,98.29
2018-06-16T00:59:51.479Z,98.38
2018-06-16T01:00:51.510Z,98.86
2018-06-16T01:01:51.476Z,99.54
2018-06-16T01:02:51.411Z,99.05
2018-06-16T01:03:52.145Z,99.15
2018-06-16T01:04:51.376Z,98.86
2018-06-16T01:05:51.343Z,97.81
2018-06-16T01:06:51.713Z,97.71
2018-06-16T01:07:53.568Z,97.04
2018-06-16T01:08:52.146Z,97.61
2018-06-16T01:09:51.244Z,98.19
2018-06-16T01:10:51.233Z,98.48
2018-06-16T01:11:51.700Z,98.86
2018-06-16T01:12:51.241Z,98.58
2018-06-16T01:13:51.651Z,98.19
2018-06-16T01:14:51.128Z,98.77
2018-06-16T01:15:51.649Z,98.58
2018-06-16T01:16:51.079Z,98.38
2018-06-16T01:17:51.099Z,98.00
2018-06-16T01:18:51.201Z,98.38
2018-06-16T01:19:51.010Z,98.10
2018-06-16T01:20:50.993Z,96.85
2018-06-16T01:21:51.649Z,96.18
2018-06-16T01:22:53.065Z,96.27
2018-06-16T01:23:50.975Z,96.66
2018-06-16T01:24:51.649Z,96.66
2018-06-16T01:25:50.867Z,96.47
2018-06-16T01:26:50.845Z,96.51
2018-06-16T01:27:51.651Z,97.56
2018-06-16T01:28:50.852Z,97.52
2018-06-16T01:29:50.776Z,97.52
2018-06-16T01:30:50.749Z,97.71
2018-06-16T01:31:51.665Z,97.47
2018-06-16T01:32:50.705Z,97.33
2018-06-16T01:33:50.744Z,97.19
2018-06-16T01:34:51.153Z,97.28
2018-06-16T01:35:50.632Z,97.09
2018-06-16T01:36:50.608Z,97.28
2018-06-16T01:37:50.583Z,97.52
2018-06-16T01:38:50.708Z,96.99
2018-06-16T01:39:50.536Z,97.47
2018-06-16T01:40:50.573Z,97.76
2018-06-16T01:41:50.492Z,97.28
2018-06-16T01:42:51.158Z,97.38
2018-06-16T01:43:50.444Z,97.38
2018-06-16T01:44:50.422Z,97.56
2018-06-16T01:45:50.708Z,98.14
2018-06-16T01:46:50.381Z,98.24
2018-06-16T01:47:50.351Z,98.43
2018-06-16T01:48:51.167Z,98.05
2018-06-16T01:49:50.343Z,97.86
2018-06-16T01:50:51.162Z,97.76
2018-06-16T01:51:50.253Z,98.24
2018-06-16T01:52:50.283Z,98.14
2018-06-16T01:53:51.158Z,98.14
2018-06-16T01:54:50.182Z,98.14
2018-06-16T01:55:50.161Z,98.14
2018-06-16T01:56:50.141Z,98.72
2018-06-16T01:57:50.211Z,98.33
2018-06-16T01:58:50.085Z,98.43
2018-06-16T01:59:50.066Z,98.24
2018-06-16T02:00:50.086Z,99.10
2018-06-16T02:01:50.017Z,98.72
2018-06-16T02:02:50.659Z,98.43
2018-06-16T02:03:49.969Z,98.33
2018-06-16T02:04:49.948Z,98.43
2018-06-16T02:05:49.961Z,98.33
2018-06-16T02:06:49.937Z,98.72
2018-06-16T02:07:49.874Z,98.24
2018-06-16T02:08:49.849Z,98.14
2018-06-16T02:09:49.825Z,98.14
2018-06-16T02:10:50.685Z,99.01
2018-06-16T02:11:49.829Z,98.62
2018-06-16T02:12:49.756Z,98.82
2018-06-16T02:13:49.731Z,99.20
2018-06-16T02:14:49.712Z,99.29
2018-06-16T02:15:49.684Z,99.20
2018-06-16T02:16:49.723Z,99.20
2018-06-16T02:17:49.680Z,99.49
2018-06-16T02:18:49.613Z,99.49
2018-06-16T02:19:50.171Z,99.01
2018-06-16T02:20:49.566Z,99.49
2018-06-16T02:21:49.545Z,99.49
2018-06-16T02:22:49.573Z,99.49
2018-06-16T02:23:49.491Z,99.20
2018-06-16T02:24:49.472Z,99.49
2018-06-16T02:25:49.449Z,99.39
2018-06-16T02:26:49.460Z,99.96
2018-06-16T02:27:49.482Z,99.49
2018-06-16T02:28:50.165Z,99.39
2018-06-16T02:29:49.359Z,99.39
2018-06-16T02:30:49.326Z,99.49
2018-06-16T02:31:50.169Z,99.49
2018-06-16T02:32:49.318Z,99.58
2018-06-16T02:33:49.726Z,99.96
2018-06-16T02:34:49.231Z,99.87
2018-06-16T02:35:49.206Z,99.99
2018-06-16T02:36:50.166Z,99.99
2018-06-16T02:37:49.234Z,99.99
2018-06-16T02:38:49.135Z,99.96
2018-06-16T02:39:49.111Z,99.87
2018-06-16T02:40:49.089Z,99.99
2018-06-16T02:41:49.669Z,99.99
2018-06-16T02:42:49.086Z,99.96
2018-06-16T02:43:49.016Z,99.99
2018-06-16T02:44:49.037Z,99.99
2018-06-16T02:45:49.674Z,99.99
2018-06-16T02:46:48.945Z,99.99
2018-06-16T02:47:48.933Z,99.99
2018-06-16T02:48:49.241Z,99.99
2018-06-16T02:49:48.872Z,99.99
2018-06-16T02:50:48.853Z,99.87
2018-06-16T02:51:49.670Z,99.68
2018-06-16T02:52:48.815Z,99.99
2018-06-16T02:53:48.835Z,99.99
2018-06-16T02:54:49.672Z,99.58
2018-06-16T02:55:49.675Z,99.68
2018-06-16T02:56:48.724Z,99.99
2018-06-16T02:57:48.687Z,99.96
2018-06-16T02:58:48.733Z,99.99
2018-06-16T02:59:48.635Z,99.99
2018-06-16T03:00:48.611Z,99.99
2018-06-16T03:01:48.586Z,99.99
2018-06-16T03:02:48.562Z,99.99
2018-06-16T03:03:48.583Z,99.99
2018-06-16T03:04:48.512Z,99.99
2018-06-16T03:05:49.176Z,99.99
2018-06-16T03:06:48.522Z,99.77
2018-06-16T03:07:48.447Z,99.99
2018-06-16T03:08:48.423Z,99.99
2018-06-16T03:09:49.174Z,99.96
2018-06-16T03:10:48.441Z,99.99
2018-06-16T03:11:48.405Z,99.99
2018-06-16T03:12:49.176Z,99.99
2018-06-16T03:13:48.321Z,99.99
2018-06-16T03:14:48.274Z,99.99
2018-06-16T03:15:48.299Z,99.96
2018-06-16T03:16:48.230Z,99.99
2018-06-16T03:17:49.084Z,99.99
2018-06-16T03:18:48.195Z,99.77
2018-06-16T03:19:48.678Z,99.99
2018-06-16T03:20:48.181Z,99.99
2018-06-16T03:21:48.160Z,99.99
2018-06-16T03:22:48.129Z,99.99
2018-06-16T03:23:48.681Z,99.77
2018-06-16T03:24:48.055Z,99.96
2018-06-16T03:25:48.038Z,99.68
2018-06-16T03:26:48.287Z,99.10
2018-06-16T03:27:47.966Z,99.10
2018-06-16T03:28:47.945Z,99.20
2018-06-16T03:29:47.915Z,99.01
2018-06-16T03:30:47.905Z,98.53
2018-06-16T03:31:47.931Z,98.43
2018-06-16T03:32:47.850Z,97.76
2018-06-16T03:33:47.824Z,97.47
2018-06-16T03:34:47.809Z,97.56
2018-06-16T03:35:47.779Z,98.05
2018-06-16T03:36:47.798Z,98.62
2018-06-16T03:37:47.735Z,98.72
2018-06-16T03:38:47.707Z,98.43
2018-06-16T03:39:48.201Z,98.14
2018-06-16T03:40:47.659Z,98.24
2018-06-16T03:41:47.677Z,97.66
2018-06-16T03:42:47.608Z,97.56
2018-06-16T03:43:47.584Z,97.38
2018-06-16T03:44:47.563Z,96.61
2018-06-16T03:45:47.537Z,96.89
2018-06-16T03:46:47.559Z,96.66
2018-06-16T03:47:47.490Z,96.75
2018-06-16T03:48:47.528Z,95.98
2018-06-16T03:49:47.446Z,96.89
2018-06-16T03:50:47.419Z,96.08
2018-06-16T03:51:47.396Z,95.98
2018-06-16T03:52:48.187Z,96.18
2018-06-16T03:53:47.391Z,96.18
2018-06-16T03:54:47.755Z,96.37
2018-06-16T03:55:47.301Z,96.08
2018-06-16T03:56:47.734Z,96.37
2018-06-16T03:57:47.263Z,96.66
2018-06-16T03:58:47.230Z,96.47
2018-06-16T03:59:47.265Z,96.94
2018-06-16T04:00:47.694Z,96.08
2018-06-16T04:01:47.192Z,96.75
2018-06-16T04:02:47.159Z,96.66
2018-06-16T04:03:47.118Z,96.56
2018-06-16T04:04:47.134Z,96.85
2018-06-16T04:05:47.138Z,97.52
2018-06-16T04:06:47.688Z,97.04
2018-06-16T04:07:47.024Z,96.66
2018-06-16T04:08:47.002Z,96.51
2018-06-16T04:09:47.011Z,97.09
2018-06-16T04:10:47.249Z,97.57
2018-06-16T04:11:46.930Z,96.61
2018-06-16T04:12:46.951Z,97.04
2018-06-16T04:13:46.880Z,95.94
2018-06-16T04:14:46.881Z,96.22
2018-06-16T04:15:46.879Z,96.32
2018-06-16T04:16:46.857Z,96.32
2018-06-16T04:17:47.688Z,96.51
2018-06-16T04:18:46.810Z,97.09
2018-06-16T04:19:46.746Z,96.70
2018-06-16T04:20:47.692Z,95.84
2018-06-16T04:21:46.741Z,95.94
2018-06-16T04:22:46.674Z,96.51
2018-06-16T04:23:46.654Z,96.32
2018-06-16T04:24:47.195Z,95.84
2018-06-16T04:25:46.607Z,96.13
2018-06-16T04:26:46.631Z,95.60
2018-06-16T04:27:46.559Z,96.51
2018-06-16T04:28:46.747Z,95.89
2018-06-16T04:29:46.522Z,96.08
2018-06-16T04:30:46.491Z,95.79
2018-06-16T04:31:46.509Z,95.60
2018-06-16T04:32:46.445Z,95.03
2018-06-16T04:33:46.485Z,94.83
2018-06-16T04:34:46.407Z,94.54
2018-06-16T04:35:47.195Z,95.94
2018-06-16T04:36:46.409Z,95.94
2018-06-16T04:37:46.333Z,95.94
2018-06-16T04:38:46.748Z,96.42
2018-06-16T04:39:46.335Z,93.63
2018-06-16T04:40:46.283Z,93.44
2018-06-16T04:41:47.203Z,93.34
2018-06-16T04:42:46.225Z,92.76
2018-06-16T04:43:46.197Z,92.96
2018-06-16T04:44:46.219Z,92.76
2018-06-16T04:45:46.737Z,91.56
2018-06-16T04:46:46.132Z,91.46
2018-06-16T04:47:46.701Z,91.56
2018-06-16T04:48:46.087Z,90.41
2018-06-16T04:49:46.103Z,90.79
2018-06-16T04:50:46.701Z,90.83
2018-06-16T04:51:46.064Z,90.26
2018-06-16T04:52:45.999Z,90.35
2018-06-16T04:53:46.022Z,89.58
2018-06-16T04:54:45.953Z,90.06
2018-06-16T04:55:45.935Z,89.78
2018-06-16T04:56:45.956Z,89.29
2018-06-16T04:57:45.890Z,89.10
2018-06-16T04:58:46.254Z,88.43
2018-06-16T04:59:45.845Z,88.33
2018-06-16T05:00:45.830Z,88.85
2018-06-16T05:01:46.252Z,89.24
2018-06-16T05:02:45.781Z,88.95
2018-06-16T05:03:45.759Z,87.18
2018-06-16T05:04:46.701Z,86.60
2018-06-16T05:05:45.725Z,85.74
2018-06-16T05:06:45.750Z,86.45
2018-06-16T05:07:45.682Z,86.55
2018-06-16T05:08:46.204Z,85.97
2018-06-16T05:09:45.690Z,85.78
2018-06-16T05:10:45.610Z,84.62
2018-06-16T05:11:45.628Z,83.95
2018-06-16T05:12:46.205Z,82.89
2018-06-16T05:13:45.596Z,83.22
2018-06-16T05:14:45.528Z,82.83
2018-06-16T05:15:46.203Z,82.74
2018-06-16T05:16:45.489Z,82.83
2018-06-16T05:17:45.521Z,82.93
2018-06-16T05:18:45.440Z,82.45
2018-06-16T05:19:46.209Z,82.74
2018-06-16T05:20:45.413Z,82.93
2018-06-16T05:21:45.379Z,82.49
2018-06-16T05:22:45.400Z,82.59
2018-06-16T05:23:45.346Z,82.78
2018-06-16T05:24:45.314Z,82.49
2018-06-16T05:25:45.348Z,82.59
2018-06-16T05:26:45.316Z,82.87
2018-06-16T05:27:45.265Z,82.97
2018-06-16T05:28:45.231Z,82.59
2018-06-16T05:29:45.206Z,82.29
2018-06-16T05:30:45.266Z,82.49
2018-06-16T05:31:45.231Z,83.26
2018-06-16T05:32:45.147Z,83.07
2018-06-16T05:33:45.128Z,83.36
2018-06-16T05:34:45.711Z,82.87
2018-06-16T05:35:45.086Z,82.87
2018-06-16T05:36:45.111Z,82.68
2018-06-16T05:37:45.045Z,82.68
2018-06-16T05:38:45.026Z,82.29
2018-06-16T05:39:45.004Z,82.49
2018-06-16T05:40:44.980Z,82.10
2018-06-16T05:41:45.019Z,81.72
2018-06-16T05:42:44.939Z,81.81
2018-06-16T05:43:44.918Z,81.33
2018-06-16T05:44:44.933Z,80.99
2018-06-16T05:45:45.715Z,80.51
2018-06-16T05:46:44.893Z,81.76
2018-06-16T05:47:44.880Z,81.66
2018-06-16T05:48:44.817Z,81.66
2018-06-16T05:49:44.794Z,81.27
2018-06-16T05:50:45.725Z,81.85
2018-06-16T05:51:44.753Z,81.57
2018-06-16T05:52:44.800Z,80.89
2018-06-16T05:53:44.712Z,80.31
2018-06-16T05:54:44.692Z,80.31
2018-06-16T05:55:45.218Z,80.51
2018-06-16T05:56:44.655Z,80.22
2018-06-16T05:57:44.683Z,80.02
2018-06-16T05:58:44.619Z,80.12
2018-06-16T05:59:44.589Z,79.97
2018-06-16T06:00:45.217Z,80.54
2018-06-16T06:01:44.548Z,80.16
2018-06-16T06:02:44.589Z,80.16
2018-06-16T06:03:44.512Z,79.97
2018-06-16T06:04:44.489Z,79.00
2018-06-16T06:05:45.235Z,78.36
2018-06-16T06:06:44.488Z,77.46
2018-06-16T06:07:44.505Z,78.23
2018-06-16T06:08:44.411Z,77.36
2018-06-16T06:09:44.390Z,77.07
2018-06-16T06:10:44.374Z,77.01
2018-06-16T06:11:45.238Z,77.11
2018-06-16T06:12:44.378Z,76.92
2018-06-16T06:13:44.352Z,76.15
2018-06-16T06:14:44.298Z,76.82
2018-06-16T06:15:44.367Z,77.11
2018-06-16T06:16:44.262Z,76.86
2018-06-16T06:17:44.229Z,76.37
2018-06-16T06:18:44.246Z,75.89
2018-06-16T06:19:44.235Z,75.41
2018-06-16T06:20:44.178Z,75.41
2018-06-16T06:21:44.167Z,75.31
2018-06-16T06:22:44.137Z,75.41
2018-06-16T06:23:44.156Z,74.96
2018-06-16T06:24:44.098Z,75.26
2018-06-16T06:25:44.073Z,75.16
2018-06-16T06:26:44.110Z,74.10
2018-06-16T06:27:44.035Z,74.77
2018-06-16T06:28:44.016Z,74.77
2018-06-16T06:29:43.993Z,73.90
2018-06-16T06:30:43.980Z,73.46
2018-06-16T06:31:43.996Z,71.91
2018-06-16T06:32:43.936Z,71.91
2018-06-16T06:33:43.923Z,71.52
2018-06-16T06:34:43.896Z,71.04
2018-06-16T06:35:43.925Z,71.36
2018-06-16T06:36:43.861Z,70.98
2018-06-16T06:37:43.843Z,71.17
2018-06-16T06:38:43.821Z,70.14
2018-06-16T06:39:43.807Z,69.27
2018-06-16T06:40:43.825Z,68.98
2018-06-16T06:41:43.765Z,69.85
2018-06-16T06:42:43.809Z,68.11
2018-06-16T06:43:43.736Z,68.98
2018-06-16T06:44:43.711Z,68.49
2018-06-16T06:45:43.694Z,68.73
2018-06-16T06:46:43.673Z,68.15
2018-06-16T06:47:43.702Z,68.15
2018-06-16T06:48:43.637Z,67.56
2018-06-16T06:49:43.621Z,67.50
2018-06-16T06:50:43.600Z,67.30
2018-06-16T06:51:43.638Z,67.02
2018-06-16T06:52:43.612Z,66.24
2018-06-16T06:53:43.593Z,67.11
2018-06-16T06:54:43.526Z,67.34
2018-06-16T06:55:43.520Z,67.24
2018-06-16T06:56:43.493Z,66.56
2018-06-16T06:57:43.530Z,65.69
2018-06-16T06:58:43.479Z,64.72
2018-06-16T06:59:43.439Z,64.95
2018-06-16T07:00:43.425Z,65.14
2018-06-16T07:01:43.402Z,65.34
2018-06-16T07:02:43.430Z,64.95
2018-06-16T07:03:43.417Z,64.37
2018-06-16T07:04:43.353Z,63.62
2018-06-16T07:05:43.335Z,63.82
2018-06-16T07:06:43.320Z,64.69
2018-06-16T07:07:43.343Z,64.40
2018-06-16T07:08:43.327Z,64.59
2018-06-16T07:09:43.268Z,63.53
2018-06-16T07:10:43.271Z,61.98
2018-06-16T07:11:43.233Z,62.29
2018-06-16T07:12:43.270Z,61.22
2018-06-16T07:13:43.199Z,61.10
2018-06-16T07:14:43.185Z,61.13
2018-06-16T07:15:43.166Z,60.23
2018-06-16T07:16:43.152Z,60.13
2018-06-16T07:17:43.304Z,60.42
2018-06-16T07:18:43.165Z,60.61
2018-06-16T07:19:43.112Z,61.13
2018-06-16T07:20:43.084Z,60.16
2018-06-16T07:21:43.067Z,60.74
2018-06-16T07:22:43.914Z,60.35
2018-06-16T07:23:43.079Z,59.09
2018-06-16T07:24:43.018Z,59.19
2018-06-16T07:25:43.045Z,58.51
2018-06-16T07:26:42.984Z,58.70
2018-06-16T07:27:44.708Z,58.22
2018-06-16T07:28:42.953Z,58.03
2018-06-16T07:29:42.954Z,58.05
2018-06-16T07:30:42.993Z,58.54
2018-06-16T07:31:43.014Z,58.73
2018-06-16T07:32:43.748Z,59.31
2018-06-16T07:33:42.907Z,58.64
2018-06-16T07:34:42.865Z,58.25
2018-06-16T07:35:42.951Z,57.86
2018-06-16T07:36:42.871Z,58.64
2018-06-16T07:37:42.809Z,58.73
2018-06-16T07:38:42.790Z,58.73
2018-06-16T07:39:42.784Z,58.15
2018-06-16T07:40:42.758Z,58.73
2018-06-16T07:41:42.808Z,59.19
2018-06-16T07:42:42.749Z,58.64
2018-06-16T07:43:42.717Z,58.25
2018-06-16T07:44:42.700Z,57.86
2018-06-16T07:45:42.678Z,59.22
2018-06-16T07:46:45.703Z,59.22
2018-06-16T07:47:42.643Z,58.15
2018-06-16T07:48:42.670Z,58.83
2018-06-16T07:49:42.618Z,58.93
2018-06-16T07:50:42.770Z,58.34
2018-06-16T07:51:42.642Z,57.18
2018-06-16T07:52:42.565Z,57.08
2018-06-16T07:53:42.551Z,57.28
2018-06-16T07:54:42.818Z,58.44
2018-06-16T07:55:42.519Z,57.76
2018-06-16T07:56:42.621Z,57.28
2018-06-16T07:57:42.532Z,56.89
2018-06-16T07:58:42.511Z,56.89
2018-06-16T07:59:42.461Z,55.92
2018-06-16T08:00:42.476Z,56.21
2018-06-16T08:01:42.486Z,57.37
2018-06-16T08:02:42.420Z,58.44
2018-06-16T08:03:42.387Z,58.64
2018-06-16T08:04:42.383Z,58.44
2018-06-16T08:05:42.372Z,57.86
2018-06-16T08:06:42.429Z,58.08
2018-06-16T08:07:42.337Z,56.04
2018-06-16T08:08:42.351Z,56.43
2018-06-16T08:09:42.293Z,56.24
2018-06-16T08:10:42.280Z,56.52
2018-06-16T08:11:42.261Z,56.72
2018-06-16T08:12:42.296Z,56.43
2018-06-16T08:13:42.225Z,56.92
2018-06-16T08:14:42.303Z,56.75
2018-06-16T08:15:42.203Z,56.36
2018-06-16T08:16:42.193Z,56.56
2018-06-16T08:17:42.178Z,56.07
2018-06-16T08:18:42.148Z,56.07
2018-06-16T08:19:42.178Z,55.88
2018-06-16T08:20:42.117Z,56.07
2018-06-16T08:21:42.123Z,55.88
2018-06-16T08:22:42.163Z,55.71
2018-06-16T08:23:42.079Z,56.68
2018-06-16T08:24:42.097Z,56.00
2018-06-16T08:25:42.671Z,54.54
2018-06-16T08:26:42.022Z,53.77
2018-06-16T08:27:42.020Z,53.18
2018-06-16T08:28:41.993Z,52.31
2018-06-16T08:29:42.027Z,52.69
2018-06-16T08:30:41.977Z,53.83
2018-06-16T08:31:41.946Z,56.16
2018-06-16T08:32:41.938Z,56.16
2018-06-16T08:33:41.913Z,56.26
2018-06-16T08:34:42.003Z,54.42
2018-06-16T08:35:41.885Z,55.00
2018-06-16T08:36:41.869Z,55.49
2018-06-16T08:37:41.897Z,54.22
2018-06-16T08:38:41.836Z,54.42
2018-06-16T08:39:41.824Z,55.68
2018-06-16T08:40:41.849Z,55.58
2018-06-16T08:41:41.792Z,55.49
2018-06-16T08:42:41.776Z,55.51
2018-06-16T08:43:41.763Z,52.98
2018-06-16T08:44:41.778Z,52.50
2018-06-16T08:45:41.777Z,52.50
2018-06-16T08:46:41.760Z,53.79
2018-06-16T08:47:41.708Z,53.79
2018-06-16T08:48:42.324Z,54.01
2018-06-16T08:49:41.668Z,53.33
2018-06-16T08:50:41.655Z,52.84
2018-06-16T08:51:41.684Z,51.58
2018-06-16T08:52:41.623Z,51.97
2018-06-16T08:53:41.615Z,51.19
2018-06-16T08:54:41.836Z,50.12
2018-06-16T08:55:41.706Z,49.63
2018-06-16T08:56:41.564Z,49.34
2018-06-16T08:57:41.553Z,49.92
2018-06-16T08:58:41.537Z,49.73
2018-06-16T08:59:42.284Z,49.95
2018-06-16T09:00:41.550Z,49.46
2018-06-16T09:01:41.489Z,48.66
2018-06-16T09:02:41.478Z,48.75
2018-06-16T09:03:41.461Z,49.71
2018-06-16T09:04:41.492Z,49.71
2018-06-16T09:05:41.439Z,50.19
2018-06-16T09:06:41.425Z,52.14
2018-06-16T09:07:41.457Z,53.14
2018-06-16T09:08:41.396Z,50.90
2018-06-16T09:09:41.438Z,51.39
2018-06-16T09:10:41.355Z,51.19
2018-06-16T09:11:41.389Z,52.94
2018-06-16T09:12:41.370Z,52.94
2018-06-16T09:13:41.316Z,52.06
2018-06-16T09:14:41.311Z,51.12
2018-06-16T09:15:41.284Z,50.43
2018-06-16T09:16:41.330Z,51.41
2018-06-16T09:17:41.257Z,51.34
2018-06-16T09:18:41.241Z,50.65
2018-06-16T09:19:41.228Z,50.07
2018-06-16T09:20:41.213Z,48.90
2018-06-16T09:21:41.241Z,48.02
2018-06-16T09:22:41.235Z,47.73
2018-06-16T09:23:41.223Z,48.02
2018-06-16T09:24:41.160Z,48.61
2018-06-16T09:25:41.137Z,47.90
2018-06-16T09:26:41.131Z,49.66
2018-06-16T09:27:41.159Z,47.71
2018-06-16T09:28:41.147Z,51.41
2018-06-16T09:29:41.093Z,52.65
2018-06-16T09:30:41.124Z,52.26
2018-06-16T09:31:41.108Z,50.12
2018-06-16T09:32:41.039Z,51.77
2018-06-16T09:33:41.027Z,49.83
2018-06-16T09:34:41.007Z,49.22
2018-06-16T09:35:41.049Z,49.39
2018-06-16T09:36:40.980Z,50.46
2018-06-16T09:37:40.960Z,49.99
2018-06-16T09:38:40.947Z,49.97
2018-06-16T09:39:40.930Z,49.68
2018-06-16T09:40:40.984Z,50.16
2018-06-16T09:41:40.908Z,49.78
2018-06-16T09:42:40.887Z,50.46
2018-06-16T09:43:40.884Z,51.82
2018-06-16T09:44:40.858Z,52.40
2018-06-16T09:45:40.877Z,52.67
2018-06-16T09:46:40.833Z,52.57
2018-06-16T09:47:40.812Z,52.57
2018-06-16T09:48:40.832Z,52.57
2018-06-16T09:49:40.780Z,52.57
2018-06-16T09:50:40.763Z,52.76
2018-06-16T09:51:40.752Z,51.82
2018-06-16T09:52:40.750Z,51.62
2018-06-16T09:53:40.777Z,51.23
2018-06-16T09:54:40.704Z,51.53
2018-06-16T09:55:40.715Z,51.89
2018-06-16T09:56:40.673Z,52.96
2018-06-16T09:57:40.704Z,52.47
2018-06-16T09:58:40.688Z,51.70
2018-06-16T09:59:40.655Z,51.11
2018-06-16T10:00:40.611Z,51.14
2018-06-16T10:01:40.608Z,51.23
2018-06-16T10:02:40.626Z,51.45
2018-06-16T10:03:40.624Z,50.68
2018-06-16T10:04:40.553Z,50.48
2018-06-16T10:05:40.537Z,49.92
2018-06-16T10:06:40.537Z,49.15
2018-06-16T10:07:40.505Z,47.69
2018-06-16T10:08:40.553Z,47.78
2018-06-16T10:09:40.489Z,48.66
2018-06-16T10:10:40.477Z,48.17
2018-06-16T10:11:40.444Z,48.17
2018-06-16T10:12:40.433Z,48.56
2018-06-16T10:13:40.459Z,49.24
2018-06-16T10:14:41.315Z,49.44
2018-06-16T10:15:40.390Z,46.93
2018-06-16T10:16:40.377Z,46.64
2018-06-16T10:17:40.370Z,46.64
2018-06-16T10:18:40.386Z,46.25
2018-06-16T10:19:40.377Z,46.05
2018-06-16T10:20:40.315Z,45.76
2018-06-16T10:21:40.295Z,46.83
2018-06-16T10:22:40.294Z,46.44
2018-06-16T10:23:40.271Z,46.76
2018-06-16T10:24:40.315Z,47.05
2018-06-16T10:25:40.807Z,46.76
2018-06-16T10:26:40.228Z,47.85
2018-06-16T10:27:40.208Z,47.27
2018-06-16T10:28:40.196Z,46.49
2018-06-16T10:29:40.237Z,45.03
2018-06-16T10:30:40.169Z,46.31
2018-06-16T10:31:40.149Z,46.51
2018-06-16T10:32:40.137Z,48.63
2018-06-16T10:33:40.122Z,47.75
2018-06-16T10:34:40.167Z,49.39
2018-06-16T10:35:40.159Z,49.97
2018-06-16T10:36:40.085Z,50.16
2018-06-16T10:37:40.072Z,50.16
2018-06-16T10:38:40.060Z,49.97
2018-06-16T10:39:40.036Z,50.73
2018-06-16T10:40:40.092Z,50.14
2018-06-16T10:41:40.015Z,50.90
2018-06-16T10:42:40.005Z,50.12
2018-06-16T10:43:39.982Z,50.60
2018-06-16T10:44:39.970Z,50.90
2018-06-16T10:45:39.999Z,51.58
2018-06-16T10:46:39.983Z,51.07
2018-06-16T10:47:39.925Z,51.48
2018-06-16T10:48:39.913Z,50.51
2018-06-16T10:49:39.900Z,50.60
2018-06-16T10:50:39.882Z,49.92
2018-06-16T10:51:39.916Z,50.60
2018-06-16T10:52:39.875Z,50.90
2018-06-16T10:53:39.842Z,50.43
2018-06-16T10:54:39.825Z,50.41
2018-06-16T10:55:39.812Z,50.63
2018-06-16T10:56:39.862Z,50.53
2018-06-16T10:57:39.781Z,51.48
2018-06-16T10:58:39.767Z,51.67
2018-06-16T10:59:39.839Z,50.73
2018-06-16T11:00:39.740Z,48.19
2018-06-16T11:01:39.769Z,49.17
2018-06-16T11:02:39.714Z,48.97
2018-06-16T11:03:39.719Z,50.90
2018-06-16T11:04:39.682Z,50.73
2018-06-16T11:05:39.680Z,46.91
2018-06-16T11:06:39.710Z,48.66
2018-06-16T11:07:39.639Z,50.51
2018-06-16T11:08:39.631Z,51.39
2018-06-16T11:09:39.610Z,51.55
2018-06-16T11:10:39.597Z,51.65
2018-06-16T11:11:39.644Z,50.51
2018-06-16T11:12:39.569Z,51.07
2018-06-16T11:13:39.656Z,51.77
2018-06-16T11:14:39.539Z,52.14
2018-06-16T11:15:39.529Z,49.90
2018-06-16T11:16:39.513Z,50.19
2018-06-16T11:17:39.499Z,51.26
2018-06-16T11:18:39.526Z,52.89
2018-06-16T11:19:39.463Z,50.75
2018-06-16T11:20:39.499Z,50.95
2018-06-16T11:21:39.446Z,52.19
2018-06-16T11:22:39.466Z,52.86
2018-06-16T11:23:39.428Z,51.33
2018-06-16T11:24:39.391Z,51.11
2018-06-16T11:25:39.400Z,50.75
2018-06-16T11:26:39.361Z,51.62
2018-06-16T11:27:39.399Z,52.21
2018-06-16T11:28:39.332Z,52.40
2018-06-16T11:29:39.322Z,52.28
2018-06-16T11:30:39.297Z,52.74
2018-06-16T11:31:39.282Z,51.50
2018-06-16T11:32:39.336Z,50.24
2018-06-16T11:33:39.829Z,50.43
2018-06-16T11:34:39.235Z,50.65
2018-06-16T11:35:39.242Z,50.58
2018-06-16T11:36:39.250Z,50.12
2018-06-16T11:37:39.231Z,50.02
2018-06-16T11:38:39.173Z,48.56
2018-06-16T11:39:39.843Z,47.13
2018-06-16T11:40:39.163Z,46.64
2018-06-16T11:41:39.140Z,47.90
2018-06-16T11:42:39.153Z,47.83
2018-06-16T11:43:39.158Z,46.95
2018-06-16T11:44:39.845Z,46.88
2018-06-16T11:45:39.068Z,46.49
2018-06-16T11:46:39.052Z,46.97
2018-06-16T11:47:39.042Z,47.07
2018-06-16T11:48:39.065Z,47.85
2018-06-16T11:49:39.404Z,47.39
2018-06-16T11:50:39.011Z,47.02
2018-06-16T11:51:38.993Z,46.83
2018-06-16T11:52:38.967Z,48.00
2018-06-16T11:53:39.014Z,46.34
2018-06-16T11:54:39.841Z,46.73
2018-06-16T11:55:38.942Z,45.26
2018-06-16T11:56:38.911Z,46.04
2018-06-16T11:57:38.907Z,47.12
2018-06-16T11:58:38.931Z,47.02
2018-06-16T11:59:38.867Z,47.61
2018-06-16T12:00:38.857Z,45.65
2018-06-16T12:01:38.838Z,45.65
2018-06-16T12:02:38.826Z,46.70
2018-06-16T12:03:38.852Z,45.34
2018-06-16T12:04:38.817Z,45.36
2018-06-16T12:05:38.828Z,46.70
2018-06-16T12:06:38.764Z,45.92
2018-06-16T12:07:38.755Z,45.85
2018-06-16T12:08:38.736Z,45.65
2018-06-16T12:09:38.719Z,44.85
2018-06-16T12:10:38.756Z,46.04
2018-06-16T12:11:38.740Z,45.75
2018-06-16T12:12:38.679Z,45.54
2018-06-16T12:13:38.679Z,47.19
2018-06-16T12:14:39.340Z,45.81
2018-06-16T12:15:38.635Z,46.59
2018-06-16T12:16:38.896Z,47.29
2018-06-16T12:17:38.606Z,45.12
2018-06-16T12:18:38.598Z,45.05
2018-06-16T12:19:38.589Z,46.41
2018-06-16T12:20:39.347Z,46.90
2018-06-16T12:21:38.595Z,46.41
2018-06-16T12:22:38.539Z,46.83
2018-06-16T12:23:38.522Z,46.90
2018-06-16T12:24:38.517Z,43.90
2018-06-16T12:25:39.346Z,43.99
2018-06-16T12:26:38.527Z,44.38
2018-06-16T12:27:38.470Z,44.87
2018-06-16T12:28:38.457Z,45.95
2018-06-16T12:29:38.450Z,45.95
2018-06-16T12:30:38.427Z,44.29
2018-06-16T12:31:38.455Z,44.38
2018-06-16T12:32:38.397Z,45.36
2018-06-16T12:33:38.905Z,45.95
2018-06-16T12:34:38.374Z,46.24
2018-06-16T12:35:38.362Z,45.17
2018-06-16T12:36:38.872Z,44.48
2018-06-16T12:37:38.326Z,43.88
2018-06-16T12:38:38.687Z,44.76
2018-06-16T12:39:38.853Z,46.63
2018-06-16T12:40:38.285Z,46.44
2018-06-16T12:41:38.271Z,44.87
2018-06-16T12:42:38.256Z,45.17
2018-06-16T12:43:38.285Z,45.17
2018-06-16T12:44:38.473Z,43.99
2018-06-16T12:45:38.213Z,43.32
2018-06-16T12:46:38.852Z,44.48
2018-06-16T12:47:38.187Z,44.19
2018-06-16T12:48:38.854Z,43.99
2018-06-16T12:49:38.198Z,43.22
2018-06-16T12:50:39.761Z,43.61
2018-06-16T12:51:38.135Z,44.38
2018-06-16T12:52:38.858Z,45.78